createdAt,value
2019-04-20T00:01:01.556Z,3.67
2019-04-20T00:03:37.632Z,1.65
2019-04-20T00:05:59.812Z,4.12
2019-04-20T00:08:31.089Z,2.27
2019-04-20T00:11:07.084Z,1.57
2019-04-20T00:13:40.495Z,2.67
2019-04-20T00:15:59.954Z,1.10
2019-04-20T00:18:38.202Z,5.58
2019-04-20T00:21:17.519Z,3.47
2019-04-20T00:23:48.639Z,3.65
2019-04-20T00:26:56.413Z,3.47
2019-04-20T00:29:20.133Z,3.95
2019-04-20T00:31:43.099Z,5.40
2019-04-20T00:34:06.641Z,2.50
2019-04-20T00:36:27.784Z,2.83
2019-04-20T00:39:01.322Z,4.45
2019-04-20T00:41:27.697Z,5.60
2019-04-20T00:43:57.758Z,4.75
2019-04-20T00:46:35.419Z,2.45
2019-04-20T00:49:08.876Z,2.67
2019-04-20T00:51:39.111Z,5.25
2019-04-20T00:53:58.730Z,3.30
2019-04-20T00:56:26.510Z,2.70
2019-04-20T00:59:09.301Z,2.80
2019-04-20T01:01:42.644Z,2.27
2019-04-20T01:04:14.837Z,4.65
2019-04-20T01:07:01.566Z,1.70
2019-04-20T01:09:24.452Z,4.62
2019-04-20T01:11:52.886Z,1.90
2019-04-20T01:14:27.307Z,2.22
2019-04-20T01:17:00.024Z,3.08
2019-04-20T01:19:21.718Z,2.30
2019-04-20T01:21:58.195Z,3.02
2019-04-20T01:24:27.546Z,2.33
2019-04-20T01:26:55.112Z,1.65
2019-04-20T01:29:29.194Z,5.58
2019-04-20T01:32:01.099Z,3.80
2019-04-20T01:34:32.228Z,2.12
2019-04-20T01:37:04.379Z,2.55
2019-04-20T01:39:28.420Z,3.90
2019-04-20T01:41:49.676Z,2.42
2019-04-20T01:44:24.564Z,6.12
2019-04-20T01:46:54.856Z,2.30
2019-04-20T01:49:22.442Z,1.92
2019-04-20T01:51:57.727Z,2.67
2019-04-20T01:54:31.205Z,2.22
2019-04-20T01:57:26.210Z,6.00
2019-04-20T02:00:08.704Z,3.25
2019-04-20T02:02:44.850Z,2.83
2019-04-20T02:05:17.091Z,3.37
2019-04-20T02:07:47.529Z,2.42
2019-04-20T02:10:15.100Z,3.35
2019-04-20T02:12:47.530Z,3.77
2019-04-20T02:15:23.160Z,2.52
2019-04-20T02:17:57.889Z,2.50
2019-04-20T02:20:36.265Z,2.52
2019-04-20T02:22:59.226Z,2.10
2019-04-20T02:25:14.543Z,1.77
2019-04-20T02:27:48.846Z,2.70
2019-04-20T02:30:47.541Z,2.85
2019-04-20T02:33:28.889Z,2.65
2019-04-20T02:36:25.103Z,4.47
2019-04-20T02:41:17.468Z,2.67
2019-04-20T02:44:04.473Z,11.05
2019-04-20T02:46:15.230Z,3.47
2019-04-20T02:48:53.526Z,2.83
2019-04-20T02:51:13.537Z,4.45
2019-04-20T02:54:05.627Z,3.58
2019-04-20T02:56:23.293Z,2.30
2019-04-20T02:58:58.053Z,2.10
2019-04-20T03:01:36.484Z,2.58
2019-04-20T03:03:51.004Z,2.00
2019-04-20T03:06:26.291Z,2.52
2019-04-20T03:09:09.060Z,2.33
2019-04-20T03:11:50.901Z,2.92
2019-04-20T03:14:05.112Z,1.75
2019-04-20T03:16:36.042Z,1.77
2019-04-20T03:19:06.787Z,2.87
2019-04-20T03:21:37.594Z,2.70
2019-04-20T03:24:12.682Z,2.75
2019-04-20T03:26:40.758Z,2.17
2019-04-20T03:29:42.297Z,1.10
2019-04-20T03:35:03.704Z,4.10
2019-04-20T03:37:13.410Z,4.37
2019-04-20T03:39:38.975Z,1.65
2019-04-20T03:41:54.950Z,2.58
2019-04-20T03:44:26.053Z,3.22
2019-04-20T03:46:57.547Z,1.77
2019-04-20T03:49:48.349Z,2.42
2019-04-20T03:52:27.686Z,2.33
2019-04-20T03:55:16.548Z,5.20
2019-04-20T03:57:57.541Z,3.15
2019-04-20T04:00:42.475Z,2.58
2019-04-20T04:03:29.300Z,2.22
2019-04-20T04:05:57.307Z,1.65
2019-04-20T04:08:21.221Z,3.98
2019-04-20T04:11:06.587Z,2.00
2019-04-20T04:13:16.650Z,1.55
2019-04-20T04:15:52.279Z,5.55
2019-04-20T04:18:25.520Z,2.47
2019-04-20T04:20:54.103Z,2.92
2019-04-20T04:23:38.082Z,2.97
2019-04-20T04:26:13.976Z,1.75
2019-04-20T04:28:37.224Z,1.90
2019-04-20T04:31:08.124Z,2.92
2019-04-20T04:36:04.892Z,3.95
2019-04-20T04:38:42.499Z,2.10
2019-04-20T04:41:16.953Z,2.08
2019-04-20T04:43:38.867Z,3.83
2019-04-20T04:45:48.918Z,2.22
2019-04-20T04:48:24.974Z,3.47
2019-04-20T04:50:54.379Z,6.35
2019-04-20T04:53:28.505Z,2.02
2019-04-20T04:55:54.656Z,3.05
2019-04-20T04:58:17.330Z,4.53
2019-04-20T05:00:46.641Z,5.53
2019-04-20T05:03:36.813Z,2.12
2019-04-20T05:06:28.059Z,5.35
2019-04-20T05:08:47.442Z,3.62
2019-04-20T05:11:11.371Z,5.37
2019-04-20T05:13:47.847Z,6.37
2019-04-20T05:16:33.575Z,3.10
2019-04-20T05:19:03.082Z,5.55
2019-04-20T05:21:57.430Z,5.15
2019-04-20T05:24:48.203Z,8.95
2019-04-20T05:27:46.547Z,4.62
2019-04-20T05:29:59.266Z,2.75
2019-04-20T05:32:35.816Z,2.80
2019-04-20T05:35:24.084Z,2.62
2019-04-20T05:37:59.788Z,2.90
2019-04-20T05:40:22.095Z,2.77
2019-04-20T05:42:52.861Z,5.62
2019-04-20T05:45:22.027Z,4.83
2019-04-20T05:47:53.676Z,3.80
2019-04-20T05:50:27.638Z,4.50
2019-04-20T05:53:03.246Z,6.67
2019-04-20T05:55:25.677Z,2.87
2019-04-20T05:57:56.783Z,4.80
2019-04-20T06:00:39.015Z,2.35
2019-04-20T06:02:59.043Z,2.65
2019-04-20T06:05:27.556Z,1.70
2019-04-20T06:08:01.701Z,3.08
2019-04-20T06:10:34.563Z,1.67
2019-04-20T06:13:00.252Z,2.58
2019-04-20T06:15:39.322Z,2.33
2019-04-20T06:18:15.080Z,3.17
2019-04-20T06:20:48.031Z,1.32
2019-04-20T06:26:19.186Z,1.75
2019-04-20T06:28:30.113Z,3.80
2019-04-20T06:30:59.452Z,1.87
2019-04-20T06:36:47.509Z,3.52
2019-04-20T06:39:16.170Z,2.08
2019-04-20T06:42:03.314Z,1.92
2019-04-20T06:44:18.027Z,7.67
2019-04-20T06:46:53.634Z,3.12
2019-04-20T06:49:16.849Z,1.75
2019-04-20T06:51:52.777Z,3.40
2019-04-20T06:54:17.341Z,2.65
2019-04-20T06:57:04.315Z,3.55
2019-04-20T06:59:32.233Z,1.85
2019-04-20T07:02:05.597Z,3.02
2019-04-20T07:07:07.278Z,5.15
2019-04-20T07:09:40.090Z,2.65
2019-04-20T07:12:01.385Z,5.60
2019-04-20T07:14:19.198Z,6.80
2019-04-20T07:17:31.708Z,3.95
2019-04-20T07:20:09.864Z,9.73
2019-04-20T07:23:20.336Z,7.42
2019-04-20T07:25:40.383Z,6.37
2019-04-20T07:28:05.441Z,6.17
2019-04-20T07:30:35.431Z,7.08
2019-04-20T07:33:06.930Z,5.33
2019-04-20T07:35:38.525Z,7.80
2019-04-20T07:38:23.422Z,7.72
2019-04-20T07:40:35.966Z,6.60
2019-04-20T07:43:04.719Z,7.12
2019-04-20T07:45:35.165Z,6.03
2019-04-20T07:48:11.258Z,7.97
2019-04-20T07:50:29.132Z,6.28
2019-04-20T07:53:04.294Z,9.75
2019-04-20T07:55:56.863Z,9.28
2019-04-20T07:58:02.744Z,9.45
2019-04-20T08:00:51.687Z,6.20
2019-04-20T08:03:33.667Z,5.97
2019-04-20T08:06:07.523Z,5.47
2019-04-20T08:11:13.882Z,7.47
2019-04-20T08:13:51.680Z,9.13
2019-04-20T08:16:23.097Z,7.42
2019-04-20T08:18:51.215Z,7.28
2019-04-20T08:21:24.293Z,7.00
2019-04-20T08:23:48.936Z,9.78
2019-04-20T08:26:08.869Z,8.48
2019-04-20T08:28:42.571Z,13.48
2019-04-20T08:31:32.454Z,9.73
2019-04-20T08:34:19.884Z,10.43
2019-04-20T08:36:49.210Z,11.33
2019-04-20T08:41:54.791Z,9.25
2019-04-20T08:44:42.641Z,6.57
2019-04-20T08:47:32.286Z,13.22
2019-04-20T08:49:41.035Z,8.65
2019-04-20T08:52:23.033Z,8.18
2019-04-20T08:54:34.620Z,11.88
2019-04-20T08:56:53.653Z,9.60
2019-04-20T09:02:22.113Z,14.55
2019-04-20T09:04:56.983Z,12.63
2019-04-20T09:07:26.355Z,18.10
2019-04-20T09:10:22.530Z,14.00
2019-04-20T09:12:35.718Z,10.93
2019-04-20T09:14:50.791Z,12.47
2019-04-20T09:17:32.623Z,15.48
2019-04-20T09:20:06.301Z,10.85
2019-04-20T09:22:39.026Z,9.85
2019-04-20T09:25:48.804Z,11.78
2019-04-20T09:27:40.808Z,14.73
2019-04-20T09:30:21.396Z,11.88
2019-04-20T09:32:56.704Z,12.47
2019-04-20T09:35:30.132Z,16.45
2019-04-20T09:38:09.088Z,11.55
2019-04-20T09:40:35.039Z,11.73
2019-04-20T09:42:56.577Z,9.95
2019-04-20T09:45:37.088Z,9.83
2019-04-20T09:48:00.559Z,9.25
2019-04-20T09:50:49.999Z,11.48
2019-04-20T09:53:17.073Z,13.35
2019-04-20T09:55:50.546Z,9.08
2019-04-20T09:58:15.468Z,10.80
2019-04-20T10:01:00.676Z,9.83
2019-04-20T10:03:13.580Z,11.65
2019-04-20T10:05:41.780Z,9.60
2019-04-20T10:08:10.401Z,8.03
2019-04-20T10:10:43.513Z,9.45
2019-04-20T10:13:11.131Z,8.68
2019-04-20T10:15:39.671Z,8.23
2019-04-20T10:18:07.957Z,10.20
2019-04-20T10:20:38.919Z,8.03
2019-04-20T10:23:06.766Z,10.35
2019-04-20T10:25:36.079Z,11.60
2019-04-20T10:28:05.528Z,11.97
2019-04-20T10:30:34.715Z,10.85
2019-04-20T10:33:03.630Z,9.90
2019-04-20T10:35:31.790Z,10.95
2019-04-20T10:38:25.609Z,12.20
2019-04-20T10:41:05.371Z,8.55
2019-04-20T10:43:25.943Z,10.43
2019-04-20T10:45:55.038Z,10.35
2019-04-20T10:48:23.648Z,10.55
2019-04-20T10:50:52.819Z,11.75
2019-04-20T10:53:21.825Z,9.50
2019-04-20T10:55:49.948Z,10.50
2019-04-20T10:58:17.924Z,7.22
2019-04-20T11:00:46.235Z,9.98
2019-04-20T11:03:15.864Z,9.25
2019-04-20T11:05:44.775Z,9.23
2019-04-20T11:08:14.721Z,10.08
2019-04-20T11:10:55.679Z,10.60
2019-04-20T11:13:12.767Z,9.73
2019-04-20T11:15:42.242Z,12.75
2019-04-20T11:18:11.345Z,12.53
2019-04-20T11:20:41.500Z,10.90
2019-04-20T11:23:10.787Z,11.15
2019-04-20T11:25:39.987Z,8.78
2019-04-20T11:28:10.202Z,9.20
2019-04-20T11:30:38.690Z,8.60
2019-04-20T11:33:07.046Z,8.50
2019-04-20T11:35:38.090Z,10.32
2019-04-20T11:38:05.271Z,10.15
2019-04-20T11:40:33.333Z,10.78
2019-04-20T11:43:01.739Z,9.18
2019-04-20T11:45:30.922Z,10.72
2019-04-20T11:47:59.234Z,12.03
2019-04-20T11:50:27.566Z,9.53
2019-04-20T11:52:57.253Z,9.03
2019-04-20T11:55:26.590Z,10.63
2019-04-20T11:57:54.651Z,10.90
2019-04-20T12:00:42.303Z,12.63
2019-04-20T12:03:25.951Z,9.65
2019-04-20T12:05:53.254Z,9.60
2019-04-20T12:08:18.395Z,9.05
2019-04-20T12:10:50.290Z,8.83
2019-04-20T12:13:18.463Z,10.35
2019-04-20T12:15:47.740Z,9.65
2019-04-20T12:18:15.826Z,8.08
2019-04-20T12:20:45.006Z,8.15
2019-04-20T12:23:13.068Z,9.65
2019-04-20T12:25:42.887Z,11.83
2019-04-20T12:28:11.601Z,7.40
2019-04-20T12:30:39.861Z,9.20
2019-04-20T12:33:09.164Z,7.80
2019-04-20T12:35:38.423Z,8.53
2019-04-20T12:38:07.322Z,9.13
2019-04-20T12:40:36.186Z,8.98
2019-04-20T12:43:04.769Z,7.42
2019-04-20T12:45:33.601Z,6.78
2019-04-20T12:48:01.838Z,7.55
2019-04-20T12:50:31.840Z,8.10
2019-04-20T12:53:00.232Z,8.38
2019-04-20T12:55:28.443Z,8.08
2019-04-20T12:57:56.723Z,7.12
2019-04-20T13:00:49.804Z,8.30
2019-04-20T13:03:18.968Z,6.72
2019-04-20T13:05:47.908Z,6.60
2019-04-20T13:08:23.151Z,7.40
2019-04-20T13:10:54.926Z,9.30
2019-04-20T13:13:46.204Z,7.87
2019-04-20T13:16:24.049Z,8.83
2019-04-20T13:18:55.242Z,7.33
2019-04-20T13:21:23.440Z,6.75
2019-04-20T13:23:51.508Z,8.15
2019-04-20T13:26:19.585Z,9.38
2019-04-20T13:28:48.763Z,9.10
2019-04-20T13:31:17.805Z,7.40
2019-04-20T13:33:47.138Z,9.20
2019-04-20T13:36:16.630Z,8.28
2019-04-20T13:38:45.671Z,7.83
2019-04-20T13:41:15.676Z,7.47
2019-04-20T13:43:44.177Z,7.12
2019-04-20T13:46:13.337Z,9.68
2019-04-20T13:48:42.719Z,9.03
2019-04-20T13:51:11.131Z,7.17
2019-04-20T13:53:39.374Z,7.85
2019-04-20T13:56:07.891Z,9.80
2019-04-20T13:58:51.648Z,7.92
2019-04-20T14:01:48.561Z,9.88
2019-04-20T14:04:28.494Z,7.60
2019-04-20T14:06:57.589Z,6.78
2019-04-20T14:09:25.722Z,5.58
2019-04-20T14:11:53.856Z,6.20
2019-04-20T14:14:23.336Z,7.20
2019-04-20T14:16:52.827Z,6.72
2019-04-20T14:19:21.081Z,8.18
2019-04-20T14:21:50.173Z,8.50
2019-04-20T14:24:19.159Z,10.43
2019-04-20T14:26:48.252Z,10.50
2019-04-20T14:29:17.001Z,7.62
2019-04-20T14:31:45.974Z,6.78
2019-04-20T14:34:15.124Z,9.00
2019-04-20T14:36:44.596Z,10.08
2019-04-20T14:39:14.044Z,8.95
2019-04-20T14:41:46.507Z,10.60
2019-04-20T14:44:16.039Z,8.30
2019-04-20T14:46:45.553Z,8.58
2019-04-20T14:49:14.717Z,5.97
2019-04-20T14:51:43.677Z,9.03
2019-04-20T14:54:12.079Z,7.90
2019-04-20T14:56:41.355Z,6.92
2019-04-20T14:59:23.315Z,7.37
2019-04-20T15:01:54.869Z,8.30
2019-04-20T15:04:25.046Z,7.67
2019-04-20T15:06:53.062Z,7.53
2019-04-20T15:09:21.228Z,7.08
2019-04-20T15:11:50.642Z,8.30
2019-04-20T15:14:20.639Z,7.67
2019-04-20T15:16:48.826Z,5.85
2019-04-20T15:19:35.779Z,8.28
2019-04-20T15:22:05.536Z,6.85
2019-04-20T15:24:33.858Z,6.30
2019-04-20T15:27:02.565Z,9.13
2019-04-20T15:29:30.689Z,6.80
2019-04-20T15:31:59.996Z,6.40
2019-04-20T15:34:28.935Z,5.95
2019-04-20T15:36:58.218Z,7.17
2019-04-20T15:39:27.378Z,6.58
2019-04-20T15:41:56.963Z,6.15
2019-04-20T15:44:25.212Z,6.12
2019-04-20T15:46:55.242Z,6.55
2019-04-20T15:49:23.992Z,5.42
2019-04-20T15:51:52.347Z,7.00
2019-04-20T15:54:20.391Z,5.12
2019-04-20T15:56:56.289Z,6.90
2019-04-20T15:59:18.299Z,7.95
2019-04-20T16:01:51.313Z,5.78
2019-04-20T16:04:54.397Z,9.03
2019-04-20T16:07:23.448Z,7.15
2019-04-20T16:09:51.725Z,4.58
2019-04-20T16:12:20.816Z,6.65
2019-04-20T16:14:49.415Z,6.47
2019-04-20T16:17:17.571Z,7.22
2019-04-20T16:19:54.482Z,6.05
2019-04-20T16:22:17.710Z,7.45
2019-04-20T16:24:49.542Z,8.05
2019-04-20T16:27:38.028Z,8.28
2019-04-20T16:30:07.616Z,6.33
2019-04-20T16:32:36.579Z,6.60
2019-04-20T16:35:06.684Z,8.03
2019-04-20T16:37:34.855Z,6.80
2019-04-20T16:40:05.695Z,6.80
2019-04-20T16:42:37.262Z,6.90
2019-04-20T16:45:05.360Z,7.17
2019-04-20T16:47:36.609Z,6.50
2019-04-20T16:50:06.778Z,6.45
2019-04-20T16:52:35.260Z,5.78
2019-04-20T16:55:03.955Z,7.37
2019-04-20T16:57:32.200Z,6.25
2019-04-20T17:00:01.647Z,6.17
2019-04-20T17:02:32.312Z,6.05
2019-04-20T17:05:00.931Z,9.83
2019-04-20T17:07:33.172Z,9.23
2019-04-20T17:10:02.350Z,7.50
2019-04-20T17:12:33.610Z,7.03
2019-04-20T17:15:01.812Z,6.20
2019-04-20T17:17:29.978Z,6.85
2019-04-20T17:19:59.553Z,8.15
2019-04-20T17:22:27.873Z,7.25
2019-04-20T17:24:56.188Z,7.65
2019-04-20T17:27:46.905Z,8.88
2019-04-20T17:30:35.747Z,8.13
2019-04-20T17:33:08.203Z,8.85
2019-04-20T17:35:47.333Z,8.43
2019-04-20T17:38:08.827Z,8.38
2019-04-20T17:40:56.373Z,10.82
2019-04-20T17:43:19.143Z,8.20
2019-04-20T17:45:49.768Z,9.25
2019-04-20T17:48:18.724Z,16.17
2019-04-20T17:51:01.442Z,8.73
2019-04-20T17:53:29.378Z,9.33
2019-04-20T17:55:51.770Z,7.53
2019-04-20T17:58:27.909Z,12.65
2019-04-20T18:01:26.835Z,8.10
2019-04-20T18:04:13.936Z,10.53
2019-04-20T18:06:35.457Z,8.18
2019-04-20T18:09:01.013Z,10.38
2019-04-20T18:11:21.956Z,9.78
2019-04-20T18:13:49.657Z,10.25
2019-04-20T18:16:45.081Z,9.88
2019-04-20T18:19:10.870Z,8.90
2019-04-20T18:21:41.673Z,12.43
2019-04-20T18:24:14.480Z,9.48
2019-04-20T18:26:59.332Z,10.72
2019-04-20T18:29:32.283Z,11.70
2019-04-20T18:31:49.350Z,10.55
2019-04-20T18:34:36.247Z,12.82
2019-04-20T18:37:07.654Z,12.07
2019-04-20T18:39:42.122Z,9.60
2019-04-20T18:42:14.286Z,9.13
2019-04-20T18:44:55.750Z,8.48
2019-04-20T18:47:30.148Z,10.55
2019-04-20T18:49:48.671Z,11.38
2019-04-20T18:52:05.988Z,9.88
2019-04-20T18:54:39.920Z,14.43
2019-04-20T18:57:11.170Z,9.15
2019-04-20T18:59:40.627Z,8.65
2019-04-20T19:02:10.707Z,15.48
2019-04-20T19:04:35.527Z,10.43
2019-04-20T19:07:04.036Z,10.98
2019-04-20T19:09:32.829Z,11.10
2019-04-20T19:12:05.764Z,11.80
2019-04-20T19:15:13.459Z,10.98
2019-04-20T19:18:06.990Z,9.65
2019-04-20T19:20:35.285Z,9.50
2019-04-20T19:23:04.115Z,13.65
2019-04-20T19:25:36.963Z,9.93
2019-04-20T19:28:03.715Z,9.45
2019-04-20T19:30:41.020Z,11.57
2019-04-20T19:33:18.733Z,9.35
2019-04-20T19:35:41.847Z,11.80
2019-04-20T19:38:14.820Z,8.13
2019-04-20T19:40:47.959Z,12.70
2019-04-20T19:43:15.953Z,10.48
2019-04-20T19:45:55.267Z,10.90
2019-04-20T19:48:20.505Z,10.60
2019-04-20T19:51:00.826Z,8.68
2019-04-20T19:53:26.644Z,14.40
2019-04-20T19:55:47.892Z,10.68
2019-04-20T19:58:16.218Z,11.20
2019-04-20T20:00:52.202Z,9.80
2019-04-20T20:03:19.886Z,7.78
2019-04-20T20:05:51.858Z,10.23
2019-04-20T20:08:23.493Z,11.10
2019-04-20T20:10:50.610Z,10.60
2019-04-20T20:13:20.431Z,9.10
2019-04-20T20:15:52.554Z,8.35
2019-04-20T20:18:33.381Z,10.78
2019-04-20T20:21:04.813Z,11.05
2019-04-20T20:23:20.216Z,10.32
2019-04-20T20:25:51.140Z,9.15
2019-04-20T20:28:31.013Z,12.20
2019-04-20T20:31:02.003Z,10.48
2019-04-20T20:33:39.259Z,8.88
2019-04-20T20:36:01.920Z,9.85
2019-04-20T20:38:31.683Z,8.40
2019-04-20T20:41:07.815Z,8.33
2019-04-20T20:43:40.952Z,8.63
2019-04-20T20:46:09.186Z,9.08
2019-04-20T20:48:38.764Z,8.58
2019-04-20T20:51:13.598Z,8.03
2019-04-20T20:53:41.925Z,8.15
2019-04-20T20:56:06.284Z,8.23
2019-04-20T20:58:38.686Z,8.25
2019-04-20T21:01:06.776Z,5.80
2019-04-20T21:03:34.613Z,7.50
2019-04-20T21:05:57.913Z,10.32
2019-04-20T21:08:26.102Z,8.40
2019-04-20T21:10:54.762Z,8.48
2019-04-20T21:13:25.944Z,10.43
2019-04-20T21:16:01.320Z,7.62
2019-04-20T21:18:42.457Z,8.98
2019-04-20T21:21:06.434Z,8.48
2019-04-20T21:23:38.026Z,7.50
2019-04-20T21:26:21.696Z,7.75
2019-04-20T21:28:41.483Z,7.75
2019-04-20T21:31:18.533Z,10.20
2019-04-20T21:33:43.131Z,7.15
2019-04-20T21:36:13.594Z,10.15
2019-04-20T21:38:43.053Z,7.47
2019-04-20T21:41:16.159Z,5.67
2019-04-20T21:43:44.398Z,5.55
2019-04-20T21:46:13.771Z,6.45
2019-04-20T21:48:58.579Z,8.28
2019-04-20T21:51:25.640Z,8.55
2019-04-20T21:53:42.386Z,7.12
2019-04-20T21:56:10.439Z,7.17
2019-04-20T21:58:43.584Z,7.42
2019-04-20T22:01:18.567Z,10.90
2019-04-20T22:03:40.619Z,7.85
2019-04-20T22:06:08.990Z,12.78
2019-04-20T22:08:40.472Z,8.13
2019-04-20T22:11:08.170Z,8.00
2019-04-20T22:13:40.265Z,10.00
2019-04-20T22:16:10.063Z,8.48
2019-04-20T22:18:50.187Z,10.00
2019-04-20T22:21:19.857Z,6.20
2019-04-20T22:23:57.199Z,8.25
2019-04-20T22:26:20.813Z,6.50
2019-04-20T22:28:40.384Z,9.65
2019-04-20T22:31:09.578Z,7.00
2019-04-20T22:33:41.135Z,6.78
2019-04-20T22:36:10.923Z,9.08
2019-04-20T22:39:05.272Z,7.05
2019-04-20T22:41:54.702Z,6.85
2019-04-20T22:44:20.690Z,7.15
2019-04-20T22:46:47.501Z,7.05
2019-04-20T22:49:33.159Z,6.70
2019-04-20T22:51:55.561Z,9.73
2019-04-20T22:54:34.040Z,7.12
2019-04-20T22:56:57.053Z,7.53
2019-04-20T22:59:22.599Z,7.78
2019-04-20T23:01:53.495Z,7.87
2019-04-20T23:04:17.016Z,6.22
2019-04-20T23:06:49.638Z,6.03
2019-04-20T23:09:16.798Z,6.60
2019-04-20T23:11:45.208Z,5.42
2019-04-20T23:14:14.336Z,5.53
2019-04-20T23:16:47.219Z,7.72
2019-04-20T23:19:12.391Z,7.62
2019-04-20T23:21:48.693Z,5.70
2019-04-20T23:24:13.282Z,6.90
2019-04-20T23:26:43.997Z,7.53
2019-04-20T23:29:11.298Z,5.33
2019-04-20T23:31:46.137Z,5.80
2019-04-20T23:34:16.539Z,8.03
2019-04-20T23:36:44.155Z,6.28
2019-04-20T23:39:10.774Z,7.47
2019-04-20T23:41:43.504Z,6.90
2019-04-20T23:44:35.729Z,5.58
2019-04-20T23:47:25.384Z,6.47
2019-04-20T23:50:13.806Z,4.78
2019-04-20T23:52:50.339Z,6.10
2019-04-20T23:55:04.913Z,5.80
2019-04-20T23:57:29.380Z,6.10
2019-04-20T23:59:58.196Z,5.95
